createdAt,value
2019-05-12T00:00:40.297Z,936.51
2019-05-12T00:01:40.287Z,936.58
2019-05-12T00:02:40.273Z,936.56
2019-05-12T00:03:41.184Z,936.57
2019-05-12T00:04:40.570Z,936.57
2019-05-12T00:05:40.239Z,936.58
2019-05-12T00:06:40.227Z,936.60
2019-05-12T00:07:41.520Z,936.64
2019-05-12T00:08:40.220Z,936.67
2019-05-12T00:09:40.192Z,936.63
2019-05-12T00:10:40.188Z,936.65
2019-05-12T00:11:40.178Z,936.66
2019-05-12T00:12:40.160Z,936.66
2019-05-12T00:13:40.162Z,936.79
2019-05-12T00:14:40.136Z,936.76
2019-05-12T00:15:40.399Z,936.78
2019-05-12T00:16:40.115Z,936.75
2019-05-12T00:17:40.102Z,936.79
2019-05-12T00:18:40.108Z,936.82
2019-05-12T00:19:40.257Z,936.82
2019-05-12T00:20:40.143Z,936.80
2019-05-12T00:21:40.175Z,936.79
2019-05-12T00:22:40.057Z,936.85
2019-05-12T00:23:40.990Z,936.84
2019-05-12T00:24:40.024Z,936.81
2019-05-12T00:25:40.012Z,936.85
2019-05-12T00:26:39.999Z,936.86
2019-05-12T00:27:39.997Z,936.86
2019-05-12T00:28:40.402Z,936.92
2019-05-12T00:29:40.097Z,936.93
2019-05-12T00:30:40.096Z,936.88
2019-05-12T00:31:39.944Z,936.92
2019-05-12T00:32:40.009Z,936.88
2019-05-12T00:33:39.940Z,936.91
2019-05-12T00:34:39.912Z,936.93
2019-05-12T00:35:40.246Z,936.90
2019-05-12T00:36:39.889Z,936.92
2019-05-12T00:37:39.876Z,936.89
2019-05-12T00:38:39.886Z,936.91
2019-05-12T00:39:39.865Z,936.88
2019-05-12T00:40:39.993Z,936.87
2019-05-12T00:41:39.830Z,936.91
2019-05-12T00:42:39.832Z,936.84
2019-05-12T00:43:39.825Z,936.89
2019-05-12T00:44:39.813Z,936.91
2019-05-12T00:45:39.791Z,936.99
2019-05-12T00:46:39.962Z,936.94
2019-05-12T00:47:39.763Z,936.91
2019-05-12T00:48:39.953Z,936.92
2019-05-12T00:49:40.134Z,936.92
2019-05-12T00:50:39.733Z,936.92
2019-05-12T00:51:39.719Z,936.98
2019-05-12T00:52:39.815Z,936.91
2019-05-12T00:53:43.352Z,936.98
2019-05-12T00:54:39.697Z,936.97
2019-05-12T00:55:39.799Z,936.98
2019-05-12T00:56:39.692Z,937.03
2019-05-12T00:57:39.651Z,937.01
2019-05-12T00:58:39.825Z,937.05
2019-05-12T00:59:39.642Z,937.11
2019-05-12T01:00:41.050Z,937.13
2019-05-12T01:01:39.606Z,937.19
2019-05-12T01:02:39.594Z,937.18
2019-05-12T01:03:39.585Z,937.21
2019-05-12T01:04:39.587Z,937.28
2019-05-12T01:05:39.568Z,937.27
2019-05-12T01:06:39.549Z,937.31
2019-05-12T01:07:39.536Z,937.33
2019-05-12T01:08:39.527Z,937.39
2019-05-12T01:09:39.532Z,937.38
2019-05-12T01:10:39.635Z,937.42
2019-05-12T01:11:39.492Z,937.43
2019-05-12T01:12:39.482Z,937.49
2019-05-12T01:13:39.472Z,937.45
2019-05-12T01:14:39.473Z,937.48
2019-05-12T01:15:39.450Z,937.50
2019-05-12T01:16:39.436Z,937.48
2019-05-12T01:17:40.513Z,937.52
2019-05-12T01:18:39.416Z,937.51
2019-05-12T01:19:40.490Z,937.50
2019-05-12T01:20:39.533Z,937.48
2019-05-12T01:21:39.379Z,937.56
2019-05-12T01:22:39.368Z,937.61
2019-05-12T01:23:53.428Z,937.62
2019-05-12T01:24:40.379Z,937.64
2019-05-12T01:25:39.952Z,937.62
2019-05-12T01:26:39.323Z,937.67
2019-05-12T01:27:39.313Z,937.71
2019-05-12T01:28:39.301Z,937.72
2019-05-12T01:29:39.291Z,937.72
2019-05-12T01:30:39.609Z,937.73
2019-05-12T01:31:39.274Z,937.76
2019-05-12T01:32:39.256Z,937.77
2019-05-12T01:33:39.244Z,937.82
2019-05-12T01:34:39.234Z,937.78
2019-05-12T01:35:39.407Z,937.86
2019-05-12T01:36:39.211Z,937.86
2019-05-12T01:37:39.200Z,937.92
2019-05-12T01:38:39.189Z,937.89
2019-05-12T01:39:39.179Z,937.88
2019-05-12T01:40:39.745Z,937.90
2019-05-12T01:41:39.169Z,937.95
2019-05-12T01:42:39.145Z,937.94
2019-05-12T01:43:39.134Z,937.98
2019-05-12T01:44:39.123Z,937.96
2019-05-12T01:45:39.125Z,938.05
2019-05-12T01:46:39.102Z,938.02
2019-05-12T01:47:39.096Z,938.02
2019-05-12T01:48:39.087Z,938.01
2019-05-12T01:49:39.069Z,938.05
2019-05-12T01:50:39.312Z,938.05
2019-05-12T01:51:39.044Z,938.10
2019-05-12T01:52:39.034Z,938.12
2019-05-12T01:53:39.023Z,938.16
2019-05-12T01:54:39.014Z,938.15
2019-05-12T01:55:39.247Z,938.14
2019-05-12T01:56:38.993Z,938.23
2019-05-12T01:57:38.985Z,938.26
2019-05-12T01:58:38.967Z,938.24
2019-05-12T01:59:38.957Z,938.26
2019-05-12T02:00:39.390Z,938.28
2019-05-12T02:01:39.162Z,938.28
2019-05-12T02:02:38.923Z,938.28
2019-05-12T02:03:38.912Z,938.28
2019-05-12T02:04:38.900Z,938.32
2019-05-12T02:05:38.903Z,938.30
2019-05-12T02:06:38.941Z,938.31
2019-05-12T02:07:38.870Z,938.29
2019-05-12T02:08:38.859Z,938.27
2019-05-12T02:09:38.875Z,938.29
2019-05-12T02:10:39.136Z,938.28
2019-05-12T02:11:38.825Z,938.35
2019-05-12T02:12:38.813Z,938.34
2019-05-12T02:13:38.801Z,938.36
2019-05-12T02:14:38.789Z,938.36
2019-05-12T02:15:38.792Z,938.39
2019-05-12T02:16:38.949Z,938.43
2019-05-12T02:17:39.239Z,938.45
2019-05-12T02:18:38.746Z,938.46
2019-05-12T02:19:38.735Z,938.47
2019-05-12T02:20:38.738Z,938.47
2019-05-12T02:21:38.713Z,938.47
2019-05-12T02:22:38.963Z,938.48
2019-05-12T02:23:38.797Z,938.51
2019-05-12T02:24:39.134Z,938.58
2019-05-12T02:25:38.683Z,938.52
2019-05-12T02:26:38.656Z,938.55
2019-05-12T02:27:38.646Z,938.58
2019-05-12T02:28:39.469Z,938.59
2019-05-12T02:29:38.623Z,938.62
2019-05-12T02:30:41.453Z,938.62
2019-05-12T02:31:39.706Z,938.65
2019-05-12T02:32:48.644Z,938.68
2019-05-12T02:33:39.579Z,938.63
2019-05-12T02:34:38.582Z,938.68
2019-05-12T02:35:38.559Z,938.71
2019-05-12T02:36:38.562Z,938.79
2019-05-12T02:37:38.538Z,938.76
2019-05-12T02:38:38.525Z,938.81
2019-05-12T02:39:38.521Z,938.73
2019-05-12T02:40:38.505Z,938.77
2019-05-12T02:41:38.511Z,938.73
2019-05-12T02:42:38.481Z,938.78
2019-05-12T02:43:38.474Z,938.80
2019-05-12T02:44:38.461Z,938.85
2019-05-12T02:45:38.453Z,938.82
2019-05-12T02:46:38.452Z,938.79
2019-05-12T02:47:38.655Z,938.85
2019-05-12T02:48:38.415Z,938.91
2019-05-12T02:49:38.410Z,938.92
2019-05-12T02:50:38.494Z,938.88
2019-05-12T02:51:38.396Z,938.95
2019-05-12T02:52:38.370Z,938.89
2019-05-12T02:53:38.360Z,938.92
2019-05-12T02:54:54.466Z,938.87
2019-05-12T02:55:39.339Z,938.92
2019-05-12T02:56:38.340Z,938.85
2019-05-12T02:57:38.316Z,938.93
2019-05-12T02:58:38.305Z,938.93
2019-05-12T02:59:38.293Z,938.93
2019-05-12T03:00:38.317Z,938.96
2019-05-12T03:01:38.287Z,938.99
2019-05-12T03:02:38.261Z,939.02
2019-05-12T03:03:38.251Z,939.07
2019-05-12T03:04:38.248Z,939.06
2019-05-12T03:05:38.247Z,939.11
2019-05-12T03:06:38.232Z,939.10
2019-05-12T03:07:38.207Z,939.11
2019-05-12T03:08:38.196Z,939.13
2019-05-12T03:09:38.187Z,939.14
2019-05-12T03:10:38.175Z,939.19
2019-05-12T03:11:38.195Z,939.24
2019-05-12T03:12:38.151Z,939.23
2019-05-12T03:13:38.139Z,939.25
2019-05-12T03:14:40.791Z,939.25
2019-05-12T03:15:38.129Z,939.25
2019-05-12T03:16:38.124Z,939.28
2019-05-12T03:17:38.095Z,939.25
2019-05-12T03:18:38.087Z,939.29
2019-05-12T03:19:38.074Z,939.32
2019-05-12T03:20:38.065Z,939.31
2019-05-12T03:21:38.065Z,939.29
2019-05-12T03:22:38.042Z,939.30
2019-05-12T03:23:38.032Z,939.30
2019-05-12T03:24:38.021Z,939.33
2019-05-12T03:25:38.008Z,939.33
2019-05-12T03:26:38.029Z,939.39
2019-05-12T03:27:37.984Z,939.35
2019-05-12T03:28:37.975Z,939.43
2019-05-12T03:29:37.969Z,939.44
2019-05-12T03:30:40.470Z,939.44
2019-05-12T03:31:40.978Z,939.49
2019-05-12T03:32:38.695Z,939.45
2019-05-12T03:33:43.722Z,939.44
2019-05-12T03:34:39.073Z,939.50
2019-05-12T03:35:45.979Z,939.52
2019-05-12T03:36:42.991Z,939.51
2019-05-12T03:37:38.890Z,939.56
2019-05-12T03:38:37.864Z,939.55
2019-05-12T03:39:37.855Z,939.63
2019-05-12T03:40:38.903Z,939.58
2019-05-12T03:41:37.833Z,939.59
2019-05-12T03:42:37.836Z,939.65
2019-05-12T03:43:37.814Z,939.64
2019-05-12T03:44:37.805Z,939.65
2019-05-12T03:45:37.787Z,939.68
2019-05-12T03:46:37.776Z,939.73
2019-05-12T03:47:37.813Z,939.69
2019-05-12T03:48:37.757Z,939.69
2019-05-12T03:49:37.749Z,939.70
2019-05-12T03:50:37.736Z,939.75
2019-05-12T03:51:37.723Z,939.81
2019-05-12T03:52:37.725Z,939.78
2019-05-12T03:53:37.700Z,939.83
2019-05-12T03:54:37.691Z,939.84
2019-05-12T03:55:41.991Z,939.85
2019-05-12T03:56:38.665Z,939.86
2019-05-12T03:57:37.672Z,939.83
2019-05-12T03:58:37.645Z,939.87
2019-05-12T03:59:37.636Z,939.93
2019-05-12T04:00:37.633Z,939.90
2019-05-12T04:01:37.614Z,939.95
2019-05-12T04:02:37.614Z,939.97
2019-05-12T04:03:37.591Z,939.98
2019-05-12T04:04:37.578Z,939.98
2019-05-12T04:05:37.571Z,939.96
2019-05-12T04:06:37.562Z,939.99
2019-05-12T04:07:37.564Z,940.04
2019-05-12T04:08:37.541Z,940.03
2019-05-12T04:09:37.523Z,940.05
2019-05-12T04:10:37.515Z,940.08
2019-05-12T04:11:37.508Z,940.14
2019-05-12T04:12:37.530Z,940.16
2019-05-12T04:13:37.480Z,940.13
2019-05-12T04:14:37.471Z,940.17
2019-05-12T04:15:37.459Z,940.18
2019-05-12T04:16:37.456Z,940.19
2019-05-12T04:17:37.437Z,940.23
2019-05-12T04:18:37.464Z,940.22
2019-05-12T04:19:37.413Z,940.21
2019-05-12T04:20:37.412Z,940.22
2019-05-12T04:21:37.400Z,940.20
2019-05-12T04:22:37.381Z,940.27
2019-05-12T04:23:37.383Z,940.26
2019-05-12T04:24:37.359Z,940.27
2019-05-12T04:25:51.123Z,940.32
2019-05-12T04:26:38.335Z,940.33
2019-05-12T04:27:37.329Z,940.32
2019-05-12T04:28:37.330Z,940.36
2019-05-12T04:29:37.305Z,940.39
2019-05-12T04:30:37.296Z,940.44
2019-05-12T04:31:37.320Z,940.45
2019-05-12T04:32:37.277Z,940.44
2019-05-12T04:33:37.275Z,940.48
2019-05-12T04:34:37.250Z,940.44
2019-05-12T04:35:37.241Z,940.56
2019-05-12T04:36:37.279Z,940.55
2019-05-12T04:37:37.220Z,940.56
2019-05-12T04:38:37.221Z,940.58
2019-05-12T04:39:37.194Z,940.58
2019-05-12T04:40:37.184Z,940.57
2019-05-12T04:41:37.193Z,940.59
2019-05-12T04:42:37.162Z,940.63
2019-05-12T04:43:37.169Z,940.63
2019-05-12T04:44:37.142Z,940.64
2019-05-12T04:45:37.130Z,940.66
2019-05-12T04:46:37.130Z,940.69
2019-05-12T04:47:37.107Z,940.74
2019-05-12T04:48:37.108Z,940.79
2019-05-12T04:49:37.086Z,940.78
2019-05-12T04:50:37.096Z,940.79
2019-05-12T04:51:37.068Z,940.82
2019-05-12T04:52:37.051Z,940.86
2019-05-12T04:53:37.058Z,940.84
2019-05-12T04:54:37.031Z,940.86
2019-05-12T04:55:37.030Z,940.89
2019-05-12T04:56:37.011Z,940.96
2019-05-12T04:57:36.997Z,940.95
2019-05-12T04:58:36.999Z,940.97
2019-05-12T04:59:36.975Z,940.98
2019-05-12T05:00:36.987Z,940.96
2019-05-12T05:01:36.953Z,941.02
2019-05-12T05:02:36.965Z,941.09
2019-05-12T05:03:36.945Z,941.05
2019-05-12T05:04:36.924Z,941.10
2019-05-12T05:05:36.911Z,941.11
2019-05-12T05:06:36.899Z,941.15
2019-05-12T05:07:36.890Z,941.14
2019-05-12T05:08:36.890Z,941.15
2019-05-12T05:09:36.868Z,941.15
2019-05-12T05:10:36.860Z,941.26
2019-05-12T05:11:36.844Z,941.23
2019-05-12T05:12:36.833Z,941.26
2019-05-12T05:13:39.791Z,941.29
2019-05-12T05:14:36.826Z,941.35
2019-05-12T05:15:36.810Z,941.35
2019-05-12T05:16:36.789Z,941.32
2019-05-12T05:17:36.778Z,941.38
2019-05-12T05:18:36.781Z,941.37
2019-05-12T05:19:36.755Z,941.45
2019-05-12T05:20:36.747Z,941.45
2019-05-12T05:21:36.736Z,941.46
2019-05-12T05:22:38.168Z,941.48
2019-05-12T05:23:36.710Z,941.50
2019-05-12T05:24:36.712Z,941.53
2019-05-12T05:25:36.689Z,941.56
2019-05-12T05:26:37.507Z,941.56
2019-05-12T05:27:36.669Z,941.55
2019-05-12T05:28:36.657Z,941.58
2019-05-12T05:29:37.245Z,941.62
2019-05-12T05:30:36.634Z,941.59
2019-05-12T05:31:36.624Z,941.64
2019-05-12T05:32:36.612Z,941.70
2019-05-12T05:33:36.612Z,941.71
2019-05-12T05:34:36.617Z,941.71
2019-05-12T05:35:39.562Z,941.73
2019-05-12T05:36:36.573Z,941.72
2019-05-12T05:37:41.304Z,941.74
2019-05-12T05:38:37.545Z,941.77
2019-05-12T05:39:47.560Z,941.72
2019-05-12T05:40:37.555Z,941.81
2019-05-12T05:41:40.051Z,941.81
2019-05-12T05:42:37.501Z,941.88
2019-05-12T05:43:36.498Z,941.94
2019-05-12T05:44:38.065Z,941.94
2019-05-12T05:45:36.471Z,941.91
2019-05-12T05:46:39.009Z,941.95
2019-05-12T05:47:37.446Z,941.92
2019-05-12T05:48:36.437Z,941.98
2019-05-12T05:49:36.447Z,942.00
2019-05-12T05:50:36.423Z,942.01
2019-05-12T05:51:39.491Z,942.01
2019-05-12T05:52:38.871Z,942.01
2019-05-12T05:53:36.381Z,942.01
2019-05-12T05:54:39.925Z,942.01
2019-05-12T05:55:36.360Z,941.97
2019-05-12T05:56:42.124Z,942.02
2019-05-12T05:57:37.339Z,942.03
2019-05-12T05:58:40.367Z,942.06
2019-05-12T05:59:37.337Z,942.05
2019-05-12T06:00:39.366Z,942.10
2019-05-12T06:01:40.105Z,942.08
2019-05-12T06:02:40.305Z,942.12
2019-05-12T06:03:36.272Z,942.13
2019-05-12T06:04:39.141Z,942.18
2019-05-12T06:05:38.666Z,942.15
2019-05-12T06:06:36.245Z,942.21
2019-05-12T06:07:39.193Z,942.21
2019-05-12T06:08:36.216Z,942.20
2019-05-12T06:09:36.507Z,942.22
2019-05-12T06:10:40.086Z,942.25
2019-05-12T06:11:36.186Z,942.26
2019-05-12T06:12:40.457Z,942.31
2019-05-12T06:13:40.035Z,942.34
2019-05-12T06:14:36.152Z,942.34
2019-05-12T06:15:40.641Z,942.37
2019-05-12T06:16:36.131Z,942.41
2019-05-12T06:17:36.118Z,942.44
2019-05-12T06:18:36.107Z,942.42
2019-05-12T06:19:36.097Z,942.43
2019-05-12T06:20:38.218Z,942.47
2019-05-12T06:21:38.168Z,942.48
2019-05-12T06:22:36.063Z,942.50
2019-05-12T06:23:39.131Z,942.51
2019-05-12T06:24:36.041Z,942.49
2019-05-12T06:25:46.125Z,942.55
2019-05-12T06:26:37.020Z,942.58
2019-05-12T06:27:36.197Z,942.60
2019-05-12T06:28:37.113Z,942.65
2019-05-12T06:29:36.993Z,942.69
2019-05-12T06:30:44.111Z,942.69
2019-05-12T06:31:36.965Z,942.68
2019-05-12T06:32:35.954Z,942.73
2019-05-12T06:33:36.400Z,942.77
2019-05-12T06:34:35.932Z,942.73
2019-05-12T06:35:40.643Z,942.76
2019-05-12T06:36:36.910Z,942.75
2019-05-12T06:37:35.899Z,942.75
2019-05-12T06:38:39.322Z,942.82
2019-05-12T06:39:35.881Z,942.81
2019-05-12T06:40:40.851Z,942.86
2019-05-12T06:41:36.863Z,942.83
2019-05-12T06:42:35.844Z,942.85
2019-05-12T06:43:39.576Z,942.83
2019-05-12T06:44:36.821Z,942.84
2019-05-12T06:45:42.044Z,942.87
2019-05-12T06:46:36.804Z,942.83
2019-05-12T06:47:39.415Z,942.90
2019-05-12T06:48:36.777Z,942.88
2019-05-12T06:49:35.767Z,942.89
2019-05-12T06:50:39.183Z,942.93
2019-05-12T06:51:35.744Z,942.85
2019-05-12T06:52:38.714Z,942.88
2019-05-12T06:53:36.723Z,942.90
2019-05-12T06:54:35.725Z,942.94
2019-05-12T06:55:39.190Z,942.95
2019-05-12T06:56:35.689Z,942.97
2019-05-12T06:57:40.051Z,943.02
2019-05-12T06:58:36.670Z,943.01
2019-05-12T06:59:35.662Z,943.01
2019-05-12T07:00:35.696Z,943.04
2019-05-12T07:01:35.635Z,943.08
2019-05-12T07:02:48.468Z,943.07
2019-05-12T07:03:37.394Z,943.08
2019-05-12T07:04:35.600Z,943.14
2019-05-12T07:05:38.396Z,943.10
2019-05-12T07:06:35.595Z,943.16
2019-05-12T07:07:42.131Z,943.20
2019-05-12T07:08:38.503Z,943.23
2019-05-12T07:09:50.984Z,943.14
2019-05-12T07:10:43.016Z,943.18
2019-05-12T07:11:44.997Z,943.22
2019-05-12T07:12:43.506Z,943.22
2019-05-12T07:13:36.502Z,943.19
2019-05-12T07:14:35.493Z,943.21
2019-05-12T07:15:40.109Z,943.23
2019-05-12T07:16:36.489Z,943.25
2019-05-12T07:17:43.754Z,943.24
2019-05-12T07:18:37.094Z,943.28
2019-05-12T07:19:35.439Z,943.29
2019-05-12T07:20:38.775Z,943.28
2019-05-12T07:21:35.428Z,943.32
2019-05-12T07:22:43.577Z,943.33
2019-05-12T07:23:36.392Z,943.30
2019-05-12T07:24:35.396Z,943.40
2019-05-12T07:25:36.887Z,943.39
2019-05-12T07:26:35.376Z,943.44
2019-05-12T07:27:39.312Z,943.47
2019-05-12T07:28:39.563Z,943.46
2019-05-12T07:29:36.329Z,943.45
2019-05-12T07:30:35.507Z,943.45
2019-05-12T07:31:35.319Z,943.49
2019-05-12T07:32:35.295Z,943.47
2019-05-12T07:33:41.617Z,943.44
2019-05-12T07:34:36.272Z,943.51
2019-05-12T07:35:35.262Z,943.53
2019-05-12T07:36:35.268Z,943.56
2019-05-12T07:37:35.239Z,943.57
2019-05-12T07:38:35.227Z,943.56
2019-05-12T07:39:36.976Z,943.63
2019-05-12T07:40:37.916Z,943.58
2019-05-12T07:41:35.223Z,943.64
2019-05-12T07:42:39.443Z,943.65
2019-05-12T07:43:35.173Z,943.70
2019-05-12T07:44:39.974Z,943.70
2019-05-12T07:45:36.149Z,943.68
2019-05-12T07:46:39.579Z,943.76
2019-05-12T07:47:36.126Z,943.73
2019-05-12T07:48:35.115Z,943.74
2019-05-12T07:49:38.534Z,943.75
2019-05-12T07:50:35.093Z,943.78
2019-05-12T07:51:36.322Z,943.68
2019-05-12T07:52:36.070Z,943.75
2019-05-12T07:53:35.061Z,943.82
2019-05-12T07:54:39.328Z,943.72
2019-05-12T07:55:39.675Z,943.76
2019-05-12T07:56:36.133Z,943.83
2019-05-12T07:57:50.662Z,943.83
2019-05-12T07:58:36.003Z,943.82
2019-05-12T07:59:40.860Z,943.82
2019-05-12T08:00:35.981Z,943.83
2019-05-12T08:01:43.911Z,943.84
2019-05-12T08:02:35.956Z,943.82
2019-05-12T08:03:34.955Z,943.82
2019-05-12T08:04:39.715Z,943.82
2019-05-12T08:05:35.925Z,943.84
2019-05-12T08:06:41.557Z,943.92
2019-05-12T08:07:35.908Z,943.90
2019-05-12T08:08:34.900Z,943.91
2019-05-12T08:09:36.389Z,943.96
2019-05-12T08:10:34.868Z,943.91
2019-05-12T08:11:38.706Z,943.96
2019-05-12T08:12:34.848Z,943.94
2019-05-12T08:13:37.596Z,944.01
2019-05-12T08:14:35.822Z,943.99
2019-05-12T08:15:34.814Z,943.97
2019-05-12T08:16:36.945Z,944.01
2019-05-12T08:17:34.810Z,944.04
2019-05-12T08:18:36.976Z,944.01
2019-05-12T08:19:35.767Z,944.00
2019-05-12T08:20:34.773Z,944.05
2019-05-12T08:21:43.706Z,944.04
2019-05-12T08:22:35.750Z,944.05
2019-05-12T08:23:37.788Z,943.98
2019-05-12T08:24:42.709Z,943.98
2019-05-12T08:25:35.700Z,943.96
2019-05-12T08:26:34.701Z,943.97
2019-05-12T08:27:39.130Z,944.02
2019-05-12T08:28:40.233Z,943.97
2019-05-12T08:29:34.664Z,943.99
2019-05-12T08:30:34.663Z,944.01
2019-05-12T08:31:40.079Z,944.01
2019-05-12T08:32:35.640Z,943.99
2019-05-12T08:33:34.871Z,944.01
2019-05-12T08:34:34.603Z,943.99
2019-05-12T08:35:37.702Z,944.01
2019-05-12T08:36:34.590Z,944.00
2019-05-12T08:37:34.594Z,944.04
2019-05-12T08:38:34.560Z,944.07
2019-05-12T08:39:34.550Z,944.07
2019-05-12T08:40:39.985Z,944.06
2019-05-12T08:41:35.531Z,944.08
2019-05-12T08:42:34.532Z,944.09
2019-05-12T08:43:34.511Z,944.10
2019-05-12T08:44:40.476Z,944.14
2019-05-12T08:45:37.577Z,944.09
2019-05-12T08:46:34.575Z,944.12
2019-05-12T08:47:38.789Z,944.14
2019-05-12T08:48:34.453Z,944.13
2019-05-12T08:49:50.136Z,944.21
2019-05-12T08:50:36.252Z,944.21
2019-05-12T08:51:34.416Z,944.25
2019-05-12T08:52:37.074Z,944.24
2019-05-12T08:53:35.396Z,944.28
2019-05-12T08:54:34.390Z,944.31
2019-05-12T08:55:35.776Z,944.29
2019-05-12T08:56:34.365Z,944.33
2019-05-12T08:57:40.664Z,944.38
2019-05-12T08:58:47.361Z,944.36
2019-05-12T08:59:35.333Z,944.42
2019-05-12T09:00:39.095Z,944.43
2019-05-12T09:01:35.306Z,944.47
2019-05-12T09:02:34.521Z,944.46
2019-05-12T09:03:34.285Z,944.51
2019-05-12T09:04:34.273Z,944.46
2019-05-12T09:05:38.317Z,944.52
2019-05-12T09:06:34.425Z,944.54
2019-05-12T09:07:35.821Z,944.55
2019-05-12T09:08:43.544Z,944.61
2019-05-12T09:09:35.231Z,944.60
2019-05-12T09:10:34.509Z,944.57
2019-05-12T09:11:34.198Z,944.58
2019-05-12T09:12:34.205Z,944.64
2019-05-12T09:13:34.175Z,944.69
2019-05-12T09:14:41.137Z,944.64
2019-05-12T09:15:35.153Z,944.66
2019-05-12T09:16:34.149Z,944.70
2019-05-12T09:17:37.416Z,944.73
2019-05-12T09:18:39.278Z,944.75
2019-05-12T09:19:34.109Z,944.70
2019-05-12T09:20:34.102Z,944.80
2019-05-12T09:21:36.950Z,944.76
2019-05-12T09:22:34.416Z,944.76
2019-05-12T09:23:40.972Z,944.79
2019-05-12T09:24:35.053Z,944.84
2019-05-12T09:25:34.399Z,944.85
2019-05-12T09:26:35.031Z,944.84
2019-05-12T09:27:34.040Z,944.86
2019-05-12T09:28:46.463Z,944.80
2019-05-12T09:29:35.000Z,944.82
2019-05-12T09:30:34.009Z,944.81
2019-05-12T09:31:33.980Z,944.83
2019-05-12T09:32:34.038Z,944.87
2019-05-12T09:33:34.711Z,944.88
2019-05-12T09:34:33.948Z,944.84
2019-05-12T09:35:38.883Z,944.91
2019-05-12T09:36:34.922Z,944.93
2019-05-12T09:37:38.583Z,944.95
2019-05-12T09:38:34.916Z,944.97
2019-05-12T09:39:42.308Z,944.96
2019-05-12T09:40:35.780Z,944.96
2019-05-12T09:41:42.170Z,944.94
2019-05-12T09:42:34.857Z,944.95
2019-05-12T09:43:34.360Z,944.98
2019-05-12T09:44:34.158Z,944.93
2019-05-12T09:45:33.830Z,944.93
2019-05-12T09:46:37.505Z,944.99
2019-05-12T09:47:34.359Z,945.05
2019-05-12T09:48:33.833Z,945.03
2019-05-12T09:49:39.313Z,945.04
2019-05-12T09:50:34.775Z,945.03
2019-05-12T09:51:41.336Z,945.05
2019-05-12T09:52:34.772Z,945.08
2019-05-12T09:53:34.184Z,945.06
2019-05-12T09:54:40.305Z,945.15
2019-05-12T09:55:34.726Z,945.09
2019-05-12T09:56:34.260Z,945.12
2019-05-12T09:57:40.714Z,945.15
2019-05-12T09:58:34.689Z,945.11
2019-05-12T09:59:33.748Z,945.13
2019-05-12T10:00:35.932Z,945.13
2019-05-12T10:01:37.375Z,945.13
2019-05-12T10:02:34.644Z,945.08
2019-05-12T10:03:38.818Z,945.14
2019-05-12T10:04:34.622Z,945.09
2019-05-12T10:05:39.334Z,945.08
2019-05-12T10:06:34.596Z,945.10
2019-05-12T10:07:34.033Z,945.10
2019-05-12T10:08:35.535Z,945.11
2019-05-12T10:09:33.650Z,945.13
2019-05-12T10:10:38.255Z,945.12
2019-05-12T10:11:34.542Z,945.10
2019-05-12T10:12:38.784Z,945.18
2019-05-12T10:13:34.536Z,945.16
2019-05-12T10:14:33.515Z,945.14
2019-05-12T10:15:33.504Z,945.13
2019-05-12T10:16:33.551Z,945.17
2019-05-12T10:17:34.114Z,945.19
2019-05-12T10:18:33.721Z,945.14
2019-05-12T10:19:34.058Z,945.31
2019-05-12T10:20:39.483Z,945.22
2019-05-12T10:21:36.043Z,945.21
2019-05-12T10:22:35.737Z,945.24
2019-05-12T10:23:34.415Z,945.22
2019-05-12T10:24:41.496Z,945.22
2019-05-12T10:25:34.394Z,945.23
2019-05-12T10:26:34.237Z,945.28
2019-05-12T10:27:34.549Z,945.32
2019-05-12T10:28:33.377Z,945.37
2019-05-12T10:29:33.349Z,945.36
2019-05-12T10:30:34.104Z,945.34
2019-05-12T10:31:35.818Z,945.43
2019-05-12T10:32:34.349Z,945.38
2019-05-12T10:33:33.850Z,945.40
2019-05-12T10:34:35.972Z,945.48
2019-05-12T10:35:34.972Z,945.48
2019-05-12T10:36:33.735Z,945.47
2019-05-12T10:37:33.261Z,945.43
2019-05-12T10:38:34.390Z,945.42
2019-05-12T10:39:33.540Z,945.44
2019-05-12T10:40:33.866Z,945.43
2019-05-12T10:41:34.205Z,945.44
2019-05-12T10:42:33.661Z,945.44
2019-05-12T10:43:34.238Z,945.40
2019-05-12T10:44:38.566Z,945.38
2019-05-12T10:45:34.188Z,945.40
2019-05-12T10:46:33.165Z,945.39
2019-05-12T10:47:34.336Z,945.36
2019-05-12T10:48:33.914Z,945.38
2019-05-12T10:49:33.799Z,945.41
2019-05-12T10:50:34.120Z,945.41
2019-05-12T10:51:34.353Z,945.37
2019-05-12T10:52:34.991Z,945.42
2019-05-12T10:53:34.238Z,945.44
2019-05-12T10:54:34.303Z,945.44
2019-05-12T10:55:33.817Z,945.47
2019-05-12T10:56:34.823Z,945.47
2019-05-12T10:57:33.443Z,945.45
2019-05-12T10:58:33.583Z,945.47
2019-05-12T10:59:38.257Z,945.49
2019-05-12T11:00:34.206Z,945.49
2019-05-12T11:01:33.011Z,945.48
2019-05-12T11:02:33.645Z,945.50
2019-05-12T11:03:33.771Z,945.53
2019-05-12T11:04:37.001Z,945.52
2019-05-12T11:05:34.379Z,945.53
2019-05-12T11:06:34.070Z,945.57
2019-05-12T11:07:34.094Z,945.48
2019-05-12T11:08:33.318Z,945.57
2019-05-12T11:09:34.571Z,945.55
2019-05-12T11:10:32.917Z,945.58
2019-05-12T11:11:42.637Z,945.55
2019-05-12T11:12:33.887Z,945.61
2019-05-12T11:13:33.853Z,945.60
2019-05-12T11:14:34.226Z,945.61
2019-05-12T11:15:34.391Z,945.65
2019-05-12T11:16:34.963Z,945.61
2019-05-12T11:17:33.525Z,945.58
2019-05-12T11:18:34.032Z,945.62
2019-05-12T11:19:33.721Z,945.62
2019-05-12T11:20:34.386Z,945.66
2019-05-12T11:21:33.629Z,945.66
2019-05-12T11:22:33.368Z,945.62
2019-05-12T11:23:34.440Z,945.67
2019-05-12T11:24:33.702Z,945.64
2019-05-12T11:25:34.024Z,945.66
2019-05-12T11:26:32.745Z,945.66
2019-05-12T11:27:34.516Z,945.65
2019-05-12T11:28:33.676Z,945.63
2019-05-12T11:29:45.738Z,945.69
2019-05-12T11:30:34.624Z,945.70
2019-05-12T11:31:33.458Z,945.71
2019-05-12T11:32:34.903Z,945.73
2019-05-12T11:33:34.171Z,945.69
2019-05-12T11:34:33.588Z,945.70
2019-05-12T11:35:32.637Z,945.74
2019-05-12T11:36:34.421Z,945.74
2019-05-12T11:37:33.822Z,945.71
2019-05-12T11:38:33.640Z,945.69
2019-05-12T11:39:38.069Z,945.72
2019-05-12T11:40:34.636Z,945.74
2019-05-12T11:41:33.354Z,945.78
2019-05-12T11:42:33.664Z,945.79
2019-05-12T11:43:33.737Z,945.78
2019-05-12T11:44:33.672Z,945.81
2019-05-12T11:45:33.575Z,945.82
2019-05-12T11:46:36.203Z,945.75
2019-05-12T11:47:35.580Z,945.79
2019-05-12T11:48:33.857Z,945.79
2019-05-12T11:49:33.409Z,945.77
2019-05-12T11:50:32.475Z,945.77
2019-05-12T11:51:34.092Z,945.80
2019-05-12T11:52:33.354Z,945.80
2019-05-12T11:53:34.869Z,945.80
2019-05-12T11:54:33.536Z,945.79
2019-05-12T11:55:34.663Z,945.79
2019-05-12T11:56:33.636Z,945.83
2019-05-12T11:57:34.126Z,945.84
2019-05-12T11:58:33.520Z,945.88
2019-05-12T11:59:34.170Z,945.86
2019-05-12T12:00:33.626Z,945.89
2019-05-12T12:01:34.455Z,945.88
2019-05-12T12:02:34.253Z,945.87
2019-05-12T12:03:33.653Z,945.93
2019-05-12T12:04:34.042Z,945.90
2019-05-12T12:05:33.865Z,945.94
2019-05-12T12:06:33.139Z,945.95
2019-05-12T12:07:33.283Z,945.98
2019-05-12T12:08:36.971Z,946.01
2019-05-12T12:09:33.289Z,945.99
2019-05-12T12:10:35.402Z,946.00
2019-05-12T12:11:34.225Z,946.00
2019-05-12T12:12:34.468Z,946.04
2019-05-12T12:13:33.658Z,945.99
2019-05-12T12:14:34.338Z,945.98
2019-05-12T12:15:34.236Z,945.98
2019-05-12T12:16:34.075Z,946.03
2019-05-12T12:17:35.160Z,946.04
2019-05-12T12:18:33.747Z,946.08
2019-05-12T12:19:37.741Z,946.07
2019-05-12T12:20:33.811Z,946.11
2019-05-12T12:21:34.945Z,946.10
2019-05-12T12:22:33.940Z,946.15
2019-05-12T12:23:33.464Z,946.15
2019-05-12T12:24:32.120Z,946.16
2019-05-12T12:25:34.322Z,946.16
2019-05-12T12:26:34.887Z,946.17
2019-05-12T12:27:32.072Z,946.19
2019-05-12T12:28:34.318Z,946.14